sensor_id;sensor_type;location;lat;lon;timestamp;temperature;humidity
44823;DHT22;51097;51.984;5.650;2023-05-29T00:00:25;15.70;99.90
44823;DHT22;51097;51.984;5.650;2023-05-29T00:02:51;15.70;99.90
44823;DHT22;51097;51.984;5.650;2023-05-29T00:05:17;15.60;99.90
44823;DHT22;51097;51.984;5.650;2023-05-29T00:07:43;15.50;99.90
44823;DHT22;51097;51.984;5.650;2023-05-29T00:10:10;15.50;99.90
44823;DHT22;51097;51.984;5.650;2023-05-29T00:12:37;15.60;99.90
44823;DHT22;51097;51.984;5.650;2023-05-29T00:15:03;15.50;99.90
44823;DHT22;51097;51.984;5.650;2023-05-29T00:17:31;15.40;99.90
44823;DHT22;51097;51.984;5.650;2023-05-29T00:20:01;15.40;99.90
44823;DHT22;51097;51.984;5.650;2023-05-29T00:22:28;15.30;99.90
44823;DHT22;51097;51.984;5.650;2023-05-29T00:24:54;15.30;99.90
44823;DHT22;51097;51.984;5.650;2023-05-29T00:27:20;15.30;99.90
44823;DHT22;51097;51.984;5.650;2023-05-29T00:29:46;15.20;99.90
44823;DHT22;51097;51.984;5.650;2023-05-29T00:32:11;15.10;99.90
44823;DHT22;51097;51.984;5.650;2023-05-29T00:34:37;15.10;99.90
44823;DHT22;51097;51.984;5.650;2023-05-29T00:37:02;15.00;99.90
44823;DHT22;51097;51.984;5.650;2023-05-29T00:39:28;15.00;99.90
44823;DHT22;51097;51.984;5.650;2023-05-29T00:41:54;15.00;99.90
44823;DHT22;51097;51.984;5.650;2023-05-29T00:44:20;15.00;99.90
44823;DHT22;51097;51.984;5.650;2023-05-29T00:46:46;15.10;99.90
44823;DHT22;51097;51.984;5.650;2023-05-29T00:49:13;15.00;99.90
44823;DHT22;51097;51.984;5.650;2023-05-29T00:51:40;14.90;99.90
44823;DHT22;51097;51.984;5.650;2023-05-29T00:54:07;14.90;99.90
44823;DHT22;51097;51.984;5.650;2023-05-29T00:56:39;14.90;99.90
44823;DHT22;51097;51.984;5.650;2023-05-29T00:59:05;14.80;99.90
44823;DHT22;51097;51.984;5.650;2023-05-29T01:01:31;14.80;99.90
44823;DHT22;51097;51.984;5.650;2023-05-29T01:03:59;14.80;99.90
44823;DHT22;51097;51.984;5.650;2023-05-29T01:06:26;14.80;99.90
44823;DHT22;51097;51.984;5.650;2023-05-29T01:08:52;14.80;99.90
44823;DHT22;51097;51.984;5.650;2023-05-29T01:11:32;14.80;99.90
44823;DHT22;51097;51.984;5.650;2023-05-29T01:14:04;14.80;99.90
44823;DHT22;51097;51.984;5.650;2023-05-29T01:16:38;14.70;99.90
44823;DHT22;51097;51.984;5.650;2023-05-29T01:19:34;14.60;99.90
44823;DHT22;51097;51.984;5.650;2023-05-29T01:22:12;14.60;99.90
44823;DHT22;51097;51.984;5.650;2023-05-29T01:25:04;14.50;99.90
44823;DHT22;51097;51.984;5.650;2023-05-29T01:27:28;14.50;99.90
44823;DHT22;51097;51.984;5.650;2023-05-29T01:29:55;14.50;99.90
44823;DHT22;51097;51.984;5.650;2023-05-29T01:32:21;14.40;99.90
44823;DHT22;51097;51.984;5.650;2023-05-29T01:34:48;14.40;99.90
44823;DHT22;51097;51.984;5.650;2023-05-29T01:37:13;14.30;99.90
44823;DHT22;51097;51.984;5.650;2023-05-29T01:39:39;14.30;99.90
44823;DHT22;51097;51.984;5.650;2023-05-29T01:42:05;14.30;99.90
44823;DHT22;51097;51.984;5.650;2023-05-29T01:44:31;14.30;99.90
44823;DHT22;51097;51.984;5.650;2023-05-29T01:46:57;14.30;99.90
44823;DHT22;51097;51.984;5.650;2023-05-29T01:49:24;14.30;99.90
44823;DHT22;51097;51.984;5.650;2023-05-29T01:51:50;14.20;99.90
44823;DHT22;51097;51.984;5.650;2023-05-29T01:54:16;14.20;99.90
44823;DHT22;51097;51.984;5.650;2023-05-29T01:56:41;14.10;99.90
44823;DHT22;51097;51.984;5.650;2023-05-29T01:59:08;14.10;99.90
44823;DHT22;51097;51.984;5.650;2023-05-29T02:01:38;14.10;99.90
44823;DHT22;51097;51.984;5.650;2023-05-29T02:04:04;14.10;99.90
44823;DHT22;51097;51.984;5.650;2023-05-29T02:06:29;14.10;99.90
44823;DHT22;51097;51.984;5.650;2023-05-29T02:08:56;14.00;99.90
44823;DHT22;51097;51.984;5.650;2023-05-29T02:11:21;14.00;99.90
44823;DHT22;51097;51.984;5.650;2023-05-29T02:13:47;14.10;99.90
44823;DHT22;51097;51.984;5.650;2023-05-29T02:16:13;14.00;99.90
44823;DHT22;51097;51.984;5.650;2023-05-29T02:18:38;14.00;99.90
44823;DHT22;51097;51.984;5.650;2023-05-29T02:21:04;14.00;99.90
44823;DHT22;51097;51.984;5.650;2023-05-29T02:23:30;14.00;99.90
44823;DHT22;51097;51.984;5.650;2023-05-29T02:25:55;13.90;99.90
44823;DHT22;51097;51.984;5.650;2023-05-29T02:28:21;13.90;99.90
44823;DHT22;51097;51.984;5.650;2023-05-29T02:30:46;13.70;99.90
44823;DHT22;51097;51.984;5.650;2023-05-29T02:33:12;13.90;99.90
44823;DHT22;51097;51.984;5.650;2023-05-29T02:35:37;13.90;99.90
44823;DHT22;51097;51.984;5.650;2023-05-29T02:38:03;13.70;99.90
44823;DHT22;51097;51.984;5.650;2023-05-29T02:40:29;13.70;99.90
44823;DHT22;51097;51.984;5.650;2023-05-29T02:42:54;13.60;99.90
44823;DHT22;51097;51.984;5.650;2023-05-29T02:45:20;13.60;99.90
44823;DHT22;51097;51.984;5.650;2023-05-29T02:47:45;13.70;99.90
44823;DHT22;51097;51.984;5.650;2023-05-29T02:50:11;13.70;99.90
44823;DHT22;51097;51.984;5.650;2023-05-29T02:52:37;13.70;99.90
44823;DHT22;51097;51.984;5.650;2023-05-29T02:55:03;13.60;99.90
44823;DHT22;51097;51.984;5.650;2023-05-29T02:57:30;13.60;99.90
44823;DHT22;51097;51.984;5.650;2023-05-29T02:59:56;13.60;99.90
44823;DHT22;51097;51.984;5.650;2023-05-29T03:02:21;13.60;99.90
44823;DHT22;51097;51.984;5.650;2023-05-29T03:04:47;13.50;99.90
44823;DHT22;51097;51.984;5.650;2023-05-29T03:07:16;13.50;99.90
44823;DHT22;51097;51.984;5.650;2023-05-29T03:09:41;13.50;99.90
44823;DHT22;51097;51.984;5.650;2023-05-29T03:12:07;13.50;99.90
44823;DHT22;51097;51.984;5.650;2023-05-29T03:14:33;13.50;99.90
44823;DHT22;51097;51.984;5.650;2023-05-29T03:17:03;13.40;99.90
44823;DHT22;51097;51.984;5.650;2023-05-29T03:19:29;13.40;99.90
44823;DHT22;51097;51.984;5.650;2023-05-29T03:21:54;13.30;99.90
44823;DHT22;51097;51.984;5.650;2023-05-29T03:24:20;13.20;99.90
44823;DHT22;51097;51.984;5.650;2023-05-29T03:26:46;13.30;99.90
44823;DHT22;51097;51.984;5.650;2023-05-29T03:29:11;13.30;99.90
44823;DHT22;51097;51.984;5.650;2023-05-29T03:31:37;13.20;99.90
44823;DHT22;51097;51.984;5.650;2023-05-29T03:34:02;13.20;99.90
44823;DHT22;51097;51.984;5.650;2023-05-29T03:36:28;13.20;99.90
44823;DHT22;51097;51.984;5.650;2023-05-29T03:38:53;13.20;99.90
44823;DHT22;51097;51.984;5.650;2023-05-29T03:41:19;13.20;99.90
44823;DHT22;51097;51.984;5.650;2023-05-29T03:43:45;13.10;99.90
44823;DHT22;51097;51.984;5.650;2023-05-29T03:46:11;13.10;99.90
44823;DHT22;51097;51.984;5.650;2023-05-29T03:48:36;13.10;99.90
44823;DHT22;51097;51.984;5.650;2023-05-29T03:51:02;13.10;99.90
44823;DHT22;51097;51.984;5.650;2023-05-29T03:53:28;13.10;99.90
44823;DHT22;51097;51.984;5.650;2023-05-29T03:55:53;13.00;99.90
44823;DHT22;51097;51.984;5.650;2023-05-29T03:58:19;13.00;99.90
44823;DHT22;51097;51.984;5.650;2023-05-29T04:00:44;13.10;99.90
44823;DHT22;51097;51.984;5.650;2023-05-29T04:03:10;13.10;99.90
44823;DHT22;51097;51.984;5.650;2023-05-29T04:05:36;13.00;99.90
44823;DHT22;51097;51.984;5.650;2023-05-29T04:08:02;13.10;99.90
44823;DHT22;51097;51.984;5.650;2023-05-29T04:10:30;13.10;99.90
44823;DHT22;51097;51.984;5.650;2023-05-29T04:12:59;13.10;99.90
44823;DHT22;51097;51.984;5.650;2023-05-29T04:15:25;13.10;99.90
44823;DHT22;51097;51.984;5.650;2023-05-29T04:17:50;13.00;99.90
44823;DHT22;51097;51.984;5.650;2023-05-29T04:20:16;13.10;99.90
44823;DHT22;51097;51.984;5.650;2023-05-29T04:22:41;13.10;99.90
44823;DHT22;51097;51.984;5.650;2023-05-29T04:25:07;13.10;99.90
44823;DHT22;51097;51.984;5.650;2023-05-29T04:27:33;13.10;99.90
44823;DHT22;51097;51.984;5.650;2023-05-29T04:30:03;13.10;99.90
44823;DHT22;51097;51.984;5.650;2023-05-29T04:32:29;13.20;99.90
44823;DHT22;51097;51.984;5.650;2023-05-29T04:34:55;13.10;99.90
44823;DHT22;51097;51.984;5.650;2023-05-29T04:37:20;13.20;99.90
44823;DHT22;51097;51.984;5.650;2023-05-29T04:39:54;13.20;99.90
44823;DHT22;51097;51.984;5.650;2023-05-29T04:42:20;13.20;99.90
44823;DHT22;51097;51.984;5.650;2023-05-29T04:44:46;13.20;99.90
44823;DHT22;51097;51.984;5.650;2023-05-29T04:47:11;13.00;99.90
44823;DHT22;51097;51.984;5.650;2023-05-29T04:49:39;13.20;99.90
44823;DHT22;51097;51.984;5.650;2023-05-29T04:52:04;13.20;99.90
44823;DHT22;51097;51.984;5.650;2023-05-29T04:54:30;13.30;99.90
44823;DHT22;51097;51.984;5.650;2023-05-29T04:56:56;13.20;99.90
44823;DHT22;51097;51.984;5.650;2023-05-29T04:59:21;13.40;99.90
44823;DHT22;51097;51.984;5.650;2023-05-29T05:01:47;13.40;99.90
44823;DHT22;51097;51.984;5.650;2023-05-29T05:04:13;13.40;99.90
44823;DHT22;51097;51.984;5.650;2023-05-29T05:06:39;13.30;99.90
44823;DHT22;51097;51.984;5.650;2023-05-29T05:09:04;13.40;99.90
44823;DHT22;51097;51.984;5.650;2023-05-29T05:11:30;13.40;99.90
44823;DHT22;51097;51.984;5.650;2023-05-29T05:13:55;13.40;99.90
44823;DHT22;51097;51.984;5.650;2023-05-29T05:16:21;13.50;99.90
44823;DHT22;51097;51.984;5.650;2023-05-29T05:18:46;13.50;99.90
44823;DHT22;51097;51.984;5.650;2023-05-29T05:21:12;13.60;99.90
44823;DHT22;51097;51.984;5.650;2023-05-29T05:23:37;13.60;99.90
44823;DHT22;51097;51.984;5.650;2023-05-29T05:26:03;13.60;99.90
44823;DHT22;51097;51.984;5.650;2023-05-29T05:28:29;13.60;99.90
44823;DHT22;51097;51.984;5.650;2023-05-29T05:30:54;13.60;99.90
44823;DHT22;51097;51.984;5.650;2023-05-29T05:33:20;13.70;99.90
44823;DHT22;51097;51.984;5.650;2023-05-29T05:35:45;13.60;99.90
44823;DHT22;51097;51.984;5.650;2023-05-29T05:38:11;13.70;99.90
44823;DHT22;51097;51.984;5.650;2023-05-29T05:40:37;13.80;99.90
44823;DHT22;51097;51.984;5.650;2023-05-29T05:43:03;13.70;99.90
44823;DHT22;51097;51.984;5.650;2023-05-29T05:45:28;13.80;99.90
44823;DHT22;51097;51.984;5.650;2023-05-29T05:47:56;13.80;99.90
44823;DHT22;51097;51.984;5.650;2023-05-29T05:50:21;13.80;99.90
44823;DHT22;51097;51.984;5.650;2023-05-29T05:52:47;13.80;99.90
44823;DHT22;51097;51.984;5.650;2023-05-29T05:55:12;13.90;99.90
44823;DHT22;51097;51.984;5.650;2023-05-29T05:57:38;14.00;99.90
44823;DHT22;51097;51.984;5.650;2023-05-29T06:00:04;14.20;99.90
44823;DHT22;51097;51.984;5.650;2023-05-29T06:02:33;14.10;99.90
44823;DHT22;51097;51.984;5.650;2023-05-29T06:04:59;14.20;99.90
44823;DHT22;51097;51.984;5.650;2023-05-29T06:07:25;14.40;99.90
44823;DHT22;51097;51.984;5.650;2023-05-29T06:09:50;14.30;99.90
44823;DHT22;51097;51.984;5.650;2023-05-29T06:12:16;14.30;99.90
44823;DHT22;51097;51.984;5.650;2023-05-29T06:14:41;14.40;99.90
44823;DHT22;51097;51.984;5.650;2023-05-29T06:17:07;14.40;99.90
44823;DHT22;51097;51.984;5.650;2023-05-29T06:19:32;14.50;99.90
44823;DHT22;51097;51.984;5.650;2023-05-29T06:21:58;14.70;99.90
44823;DHT22;51097;51.984;5.650;2023-05-29T06:24:23;14.70;99.90
44823;DHT22;51097;51.984;5.650;2023-05-29T06:26:49;14.80;99.90
44823;DHT22;51097;51.984;5.650;2023-05-29T06:29:15;14.80;99.90
44823;DHT22;51097;51.984;5.650;2023-05-29T06:31:41;14.90;99.90
44823;DHT22;51097;51.984;5.650;2023-05-29T06:34:06;15.00;99.90
44823;DHT22;51097;51.984;5.650;2023-05-29T06:36:32;14.90;99.90
44823;DHT22;51097;51.984;5.650;2023-05-29T06:38:58;15.10;99.90
44823;DHT22;51097;51.984;5.650;2023-05-29T06:41:23;15.20;99.90
44823;DHT22;51097;51.984;5.650;2023-05-29T06:43:49;15.20;99.90
44823;DHT22;51097;51.984;5.650;2023-05-29T06:46:15;15.30;99.90
44823;DHT22;51097;51.984;5.650;2023-05-29T06:48:40;15.50;99.90
44823;DHT22;51097;51.984;5.650;2023-05-29T06:51:06;15.70;99.90
44823;DHT22;51097;51.984;5.650;2023-05-29T06:53:37;15.80;99.90
44823;DHT22;51097;51.984;5.650;2023-05-29T06:56:04;15.90;99.90
44823;DHT22;51097;51.984;5.650;2023-05-29T06:58:31;15.80;99.90
44823;DHT22;51097;51.984;5.650;2023-05-29T07:00:56;15.70;99.90
44823;DHT22;51097;51.984;5.650;2023-05-29T07:03:22;16.00;99.90
44823;DHT22;51097;51.984;5.650;2023-05-29T07:05:48;16.10;99.90
44823;DHT22;51097;51.984;5.650;2023-05-29T07:08:13;16.30;99.90
44823;DHT22;51097;51.984;5.650;2023-05-29T07:10:39;16.40;99.90
44823;DHT22;51097;51.984;5.650;2023-05-29T07:13:04;16.60;99.90
44823;DHT22;51097;51.984;5.650;2023-05-29T07:15:31;16.70;99.90
44823;DHT22;51097;51.984;5.650;2023-05-29T07:17:57;16.80;99.90
44823;DHT22;51097;51.984;5.650;2023-05-29T07:20:23;16.90;99.90
44823;DHT22;51097;51.984;5.650;2023-05-29T07:22:48;17.10;99.90
44823;DHT22;51097;51.984;5.650;2023-05-29T07:25:14;17.30;99.90
44823;DHT22;51097;51.984;5.650;2023-05-29T07:27:40;17.50;99.90
44823;DHT22;51097;51.984;5.650;2023-05-29T07:30:06;17.70;99.90
44823;DHT22;51097;51.984;5.650;2023-05-29T07:32:32;18.00;99.90
44823;DHT22;51097;51.984;5.650;2023-05-29T07:34:58;18.40;99.90
44823;DHT22;51097;51.984;5.650;2023-05-29T07:37:23;18.60;99.90
44823;DHT22;51097;51.984;5.650;2023-05-29T07:39:49;18.80;99.90
44823;DHT22;51097;51.984;5.650;2023-05-29T07:42:15;19.00;99.90
44823;DHT22;51097;51.984;5.650;2023-05-29T07:44:40;19.30;99.90
44823;DHT22;51097;51.984;5.650;2023-05-29T07:47:08;19.60;99.90
44823;DHT22;51097;51.984;5.650;2023-05-29T07:49:34;19.70;99.90
44823;DHT22;51097;51.984;5.650;2023-05-29T07:52:01;20.00;99.90
44823;DHT22;51097;51.984;5.650;2023-05-29T07:54:30;20.20;98.90
44823;DHT22;51097;51.984;5.650;2023-05-29T07:57:00;20.60;99.20
44823;DHT22;51097;51.984;5.650;2023-05-29T07:59:27;20.80;98.90
44823;DHT22;51097;51.984;5.650;2023-05-29T08:01:54;21.10;97.30
44823;DHT22;51097;51.984;5.650;2023-05-29T08:04:23;21.30;97.20
44823;DHT22;51097;51.984;5.650;2023-05-29T08:06:49;21.40;96.70
44823;DHT22;51097;51.984;5.650;2023-05-29T08:09:14;21.60;96.20
44823;DHT22;51097;51.984;5.650;2023-05-29T08:11:40;21.80;95.80
44823;DHT22;51097;51.984;5.650;2023-05-29T08:14:06;22.10;95.00
44823;DHT22;51097;51.984;5.650;2023-05-29T08:16:31;22.20;95.00
44823;DHT22;51097;51.984;5.650;2023-05-29T08:18:57;22.40;93.90
44823;DHT22;51097;51.984;5.650;2023-05-29T08:21:22;22.40;94.60
44823;DHT22;51097;51.984;5.650;2023-05-29T08:23:48;22.40;94.40
44823;DHT22;51097;51.984;5.650;2023-05-29T08:26:13;22.70;93.70
44823;DHT22;51097;51.984;5.650;2023-05-29T08:28:39;22.90;92.80
44823;DHT22;51097;51.984;5.650;2023-05-29T08:31:05;23.10;93.90
44823;DHT22;51097;51.984;5.650;2023-05-29T08:33:30;23.30;93.60
44823;DHT22;51097;51.984;5.650;2023-05-29T08:35:58;23.70;92.60
44823;DHT22;51097;51.984;5.650;2023-05-29T08:38:24;23.80;92.50
44823;DHT22;51097;51.984;5.650;2023-05-29T08:40:51;24.00;91.70
44823;DHT22;51097;51.984;5.650;2023-05-29T08:43:22;24.30;91.00
44823;DHT22;51097;51.984;5.650;2023-05-29T08:45:53;24.60;90.50
44823;DHT22;51097;51.984;5.650;2023-05-29T08:48:23;24.80;90.70
44823;DHT22;51097;51.984;5.650;2023-05-29T08:50:52;24.90;90.40
44823;DHT22;51097;51.984;5.650;2023-05-29T08:53:18;25.20;90.40
44823;DHT22;51097;51.984;5.650;2023-05-29T08:55:45;25.50;89.30
44823;DHT22;51097;51.984;5.650;2023-05-29T08:58:16;25.60;86.30
44823;DHT22;51097;51.984;5.650;2023-05-29T09:00:41;25.70;86.00
44823;DHT22;51097;51.984;5.650;2023-05-29T09:03:07;25.90;84.60
44823;DHT22;51097;51.984;5.650;2023-05-29T09:05:33;26.00;85.20
44823;DHT22;51097;51.984;5.650;2023-05-29T09:07:59;26.20;84.50
44823;DHT22;51097;51.984;5.650;2023-05-29T09:10:25;26.20;85.80
44823;DHT22;51097;51.984;5.650;2023-05-29T09:12:51;26.40;81.80
44823;DHT22;51097;51.984;5.650;2023-05-29T09:15:22;26.40;81.90
44823;DHT22;51097;51.984;5.650;2023-05-29T09:17:58;26.50;82.30
44823;DHT22;51097;51.984;5.650;2023-05-29T09:20:25;26.70;81.20
44823;DHT22;51097;51.984;5.650;2023-05-29T09:23:02;26.70;80.30
44823;DHT22;51097;51.984;5.650;2023-05-29T09:25:30;26.90;80.90
44823;DHT22;51097;51.984;5.650;2023-05-29T09:32:57;27.30;80.30
44823;DHT22;51097;51.984;5.650;2023-05-29T09:35:23;27.60;79.30
44823;DHT22;51097;51.984;5.650;2023-05-29T09:37:49;27.50;77.50
44823;DHT22;51097;51.984;5.650;2023-05-29T09:40:15;27.50;77.50
44823;DHT22;51097;51.984;5.650;2023-05-29T09:42:41;27.80;78.40
44823;DHT22;51097;51.984;5.650;2023-05-29T09:45:07;28.00;79.30
44823;DHT22;51097;51.984;5.650;2023-05-29T09:47:34;28.10;77.80
44823;DHT22;51097;51.984;5.650;2023-05-29T09:50:00;28.40;74.10
44823;DHT22;51097;51.984;5.650;2023-05-29T09:52:29;28.50;77.20
44823;DHT22;51097;51.984;5.650;2023-05-29T09:54:55;28.70;75.60
44823;DHT22;51097;51.984;5.650;2023-05-29T09:57:23;28.90;74.70
44823;DHT22;51097;51.984;5.650;2023-05-29T09:59:50;29.10;73.30
44823;DHT22;51097;51.984;5.650;2023-05-29T10:02:18;29.50;72.80
44823;DHT22;51097;51.984;5.650;2023-05-29T10:04:44;29.40;70.80
44823;DHT22;51097;51.984;5.650;2023-05-29T10:07:25;29.40;71.30
44823;DHT22;51097;51.984;5.650;2023-05-29T10:09:55;29.50;70.80
44823;DHT22;51097;51.984;5.650;2023-05-29T10:12:24;29.50;70.20
44823;DHT22;51097;51.984;5.650;2023-05-29T10:14:55;29.70;69.00
44823;DHT22;51097;51.984;5.650;2023-05-29T10:17:26;29.80;68.50
44823;DHT22;51097;51.984;5.650;2023-05-29T10:19:55;29.90;68.30
44823;DHT22;51097;51.984;5.650;2023-05-29T10:22:24;29.90;67.60
44823;DHT22;51097;51.984;5.650;2023-05-29T10:24:51;29.90;67.20
44823;DHT22;51097;51.984;5.650;2023-05-29T10:27:18;30.00;65.50
44823;DHT22;51097;51.984;5.650;2023-05-29T10:29:52;30.10;69.20
44823;DHT22;51097;51.984;5.650;2023-05-29T10:32:33;30.40;66.80
44823;DHT22;51097;51.984;5.650;2023-05-29T10:35:14;30.50;66.80
44823;DHT22;51097;51.984;5.650;2023-05-29T10:37:44;30.60;65.50
44823;DHT22;51097;51.984;5.650;2023-05-29T10:40:11;30.80;66.30
44823;DHT22;51097;51.984;5.650;2023-05-29T10:45:04;31.00;64.10
44823;DHT22;51097;51.984;5.650;2023-05-29T10:47:30;31.10;63.70
44823;DHT22;51097;51.984;5.650;2023-05-29T10:50:00;31.20;64.20
44823;DHT22;51097;51.984;5.650;2023-05-29T10:52:26;31.40;63.50
44823;DHT22;51097;51.984;5.650;2023-05-29T10:54:53;31.50;65.10
44823;DHT22;51097;51.984;5.650;2023-05-29T10:57:23;31.60;62.20
44823;DHT22;51097;51.984;5.650;2023-05-29T10:59:58;31.60;63.70
44823;DHT22;51097;51.984;5.650;2023-05-29T11:02:25;31.50;63.30
44823;DHT22;51097;51.984;5.650;2023-05-29T11:05:25;31.80;62.80
44823;DHT22;51097;51.984;5.650;2023-05-29T11:07:56;31.90;65.90
44823;DHT22;51097;51.984;5.650;2023-05-29T11:10:59;31.60;59.60
44823;DHT22;51097;51.984;5.650;2023-05-29T11:13:33;31.40;58.80
44823;DHT22;51097;51.984;5.650;2023-05-29T11:16:09;31.30;59.80
44823;DHT22;51097;51.984;5.650;2023-05-29T11:18:40;31.00;58.50
44823;DHT22;51097;51.984;5.650;2023-05-29T11:24:01;30.70;59.60
44823;DHT22;51097;51.984;5.650;2023-05-29T11:26:29;30.90;60.00
44823;DHT22;51097;51.984;5.650;2023-05-29T11:29:00;30.90;60.50
44823;DHT22;51097;51.984;5.650;2023-05-29T11:31:27;31.10;60.30
44823;DHT22;51097;51.984;5.650;2023-05-29T11:33:55;31.30;59.90
44823;DHT22;51097;51.984;5.650;2023-05-29T11:36:25;31.30;60.40
44823;DHT22;51097;51.984;5.650;2023-05-29T11:38:52;31.70;59.20
44823;DHT22;51097;51.984;5.650;2023-05-29T11:41:18;32.00;57.90
44823;DHT22;51097;51.984;5.650;2023-05-29T11:43:43;32.00;59.60
44823;DHT22;51097;51.984;5.650;2023-05-29T11:46:19;32.10;57.30
44823;DHT22;51097;51.984;5.650;2023-05-29T11:48:48;32.30;59.00
44823;DHT22;51097;51.984;5.650;2023-05-29T11:51:14;32.20;57.30
44823;DHT22;51097;51.984;5.650;2023-05-29T11:53:41;32.20;57.20
44823;DHT22;51097;51.984;5.650;2023-05-29T11:56:10;32.00;56.20
44823;DHT22;51097;51.984;5.650;2023-05-29T11:58:40;32.00;57.30
44823;DHT22;51097;51.984;5.650;2023-05-29T12:01:07;32.10;57.00
44823;DHT22;51097;51.984;5.650;2023-05-29T12:03:42;32.10;56.90
44823;DHT22;51097;51.984;5.650;2023-05-29T12:06:11;32.20;56.30
44823;DHT22;51097;51.984;5.650;2023-05-29T12:08:38;32.10;55.10
44823;DHT22;51097;51.984;5.650;2023-05-29T12:11:03;32.10;57.30
44823;DHT22;51097;51.984;5.650;2023-05-29T12:13:29;32.10;56.70
44823;DHT22;51097;51.984;5.650;2023-05-29T12:16:00;32.30;57.40
44823;DHT22;51097;51.984;5.650;2023-05-29T12:18:26;32.30;55.60
44823;DHT22;51097;51.984;5.650;2023-05-29T12:21:02;32.10;56.20
44823;DHT22;51097;51.984;5.650;2023-05-29T12:23:29;32.30;55.40
44823;DHT22;51097;51.984;5.650;2023-05-29T12:25:55;32.30;55.40
44823;DHT22;51097;51.984;5.650;2023-05-29T12:28:21;32.30;55.80
44823;DHT22;51097;51.984;5.650;2023-05-29T12:30:48;32.30;54.90
44823;DHT22;51097;51.984;5.650;2023-05-29T12:33:32;32.10;54.20
44823;DHT22;51097;51.984;5.650;2023-05-29T12:36:03;32.10;55.20
44823;DHT22;51097;51.984;5.650;2023-05-29T12:38:29;32.00;55.50
44823;DHT22;51097;51.984;5.650;2023-05-29T12:40:55;31.90;54.80
44823;DHT22;51097;51.984;5.650;2023-05-29T12:43:22;31.90;52.10
44823;DHT22;51097;51.984;5.650;2023-05-29T12:45:54;31.80;53.00
44823;DHT22;51097;51.984;5.650;2023-05-29T12:48:21;31.70;54.50
44823;DHT22;51097;51.984;5.650;2023-05-29T12:50:51;31.70;54.40
44823;DHT22;51097;51.984;5.650;2023-05-29T12:53:16;31.80;52.70
44823;DHT22;51097;51.984;5.650;2023-05-29T12:55:43;31.60;53.10
44823;DHT22;51097;51.984;5.650;2023-05-29T12:58:10;31.60;54.50
44823;DHT22;51097;51.984;5.650;2023-05-29T13:00:37;31.40;52.40
44823;DHT22;51097;51.984;5.650;2023-05-29T13:03:07;31.30;54.40
44823;DHT22;51097;51.984;5.650;2023-05-29T13:05:33;31.30;53.00
44823;DHT22;51097;51.984;5.650;2023-05-29T13:08:00;31.10;53.00
44823;DHT22;51097;51.984;5.650;2023-05-29T13:10:27;30.90;54.80
44823;DHT22;51097;51.984;5.650;2023-05-29T13:12:53;30.70;54.20
44823;DHT22;51097;51.984;5.650;2023-05-29T13:15:21;30.70;54.80
44823;DHT22;51097;51.984;5.650;2023-05-29T13:17:47;30.70;54.30
44823;DHT22;51097;51.984;5.650;2023-05-29T13:20:13;30.80;54.70
44823;DHT22;51097;51.984;5.650;2023-05-29T13:22:40;31.10;55.30
44823;DHT22;51097;51.984;5.650;2023-05-29T13:25:08;31.20;54.20
44823;DHT22;51097;51.984;5.650;2023-05-29T13:27:35;31.00;52.90
44823;DHT22;51097;51.984;5.650;2023-05-29T13:30:02;31.30;53.20
44823;DHT22;51097;51.984;5.650;2023-05-29T13:32:28;31.60;52.00
44823;DHT22;51097;51.984;5.650;2023-05-29T13:34:53;31.70;52.20
44823;DHT22;51097;51.984;5.650;2023-05-29T13:37:19;32.00;52.70
44823;DHT22;51097;51.984;5.650;2023-05-29T13:39:44;32.20;52.40
44823;DHT22;51097;51.984;5.650;2023-05-29T13:42:10;32.10;50.60
44823;DHT22;51097;51.984;5.650;2023-05-29T13:44:36;32.20;50.60
44823;DHT22;51097;51.984;5.650;2023-05-29T13:47:02;32.10;49.90
44823;DHT22;51097;51.984;5.650;2023-05-29T13:49:28;32.20;52.10
44823;DHT22;51097;51.984;5.650;2023-05-29T13:51:53;32.20;51.60
44823;DHT22;51097;51.984;5.650;2023-05-29T13:54:19;32.20;51.50
44823;DHT22;51097;51.984;5.650;2023-05-29T13:56:45;32.30;53.80
44823;DHT22;51097;51.984;5.650;2023-05-29T13:59:10;32.20;51.70
44823;DHT22;51097;51.984;5.650;2023-05-29T14:01:36;32.10;52.00
44823;DHT22;51097;51.984;5.650;2023-05-29T14:04:01;31.90;52.60
44823;DHT22;51097;51.984;5.650;2023-05-29T14:06:27;31.90;51.30
44823;DHT22;51097;51.984;5.650;2023-05-29T14:08:53;32.00;52.30
44823;DHT22;51097;51.984;5.650;2023-05-29T14:11:19;31.90;53.50
44823;DHT22;51097;51.984;5.650;2023-05-29T14:13:45;31.90;52.50
44823;DHT22;51097;51.984;5.650;2023-05-29T14:16:11;31.70;52.20
44823;DHT22;51097;51.984;5.650;2023-05-29T14:18:36;31.70;52.00
44823;DHT22;51097;51.984;5.650;2023-05-29T14:21:02;31.60;53.40
44823;DHT22;51097;51.984;5.650;2023-05-29T14:23:27;31.50;53.30
44823;DHT22;51097;51.984;5.650;2023-05-29T14:25:54;31.70;53.70
44823;DHT22;51097;51.984;5.650;2023-05-29T14:28:19;31.90;53.30
44823;DHT22;51097;51.984;5.650;2023-05-29T14:30:45;32.10;52.50
44823;DHT22;51097;51.984;5.650;2023-05-29T14:33:11;32.20;51.10
44823;DHT22;51097;51.984;5.650;2023-05-29T14:35:36;32.30;51.60
44823;DHT22;51097;51.984;5.650;2023-05-29T14:38:02;32.30;52.10
44823;DHT22;51097;51.984;5.650;2023-05-29T14:40:27;32.50;51.60
44823;DHT22;51097;51.984;5.650;2023-05-29T14:42:53;32.40;51.50
44823;DHT22;51097;51.984;5.650;2023-05-29T14:45:19;32.40;52.40
44823;DHT22;51097;51.984;5.650;2023-05-29T14:47:45;32.00;51.50
44823;DHT22;51097;51.984;5.650;2023-05-29T14:50:11;31.90;52.80
44823;DHT22;51097;51.984;5.650;2023-05-29T14:52:37;32.00;52.30
44823;DHT22;51097;51.984;5.650;2023-05-29T14:55:06;32.00;51.80
44823;DHT22;51097;51.984;5.650;2023-05-29T14:57:31;32.00;52.00
44823;DHT22;51097;51.984;5.650;2023-05-29T14:59:59;32.00;51.50
44823;DHT22;51097;51.984;5.650;2023-05-29T15:02:24;32.00;50.80
44823;DHT22;51097;51.984;5.650;2023-05-29T15:04:50;32.00;50.80
44823;DHT22;51097;51.984;5.650;2023-05-29T15:07:16;31.90;52.30
44823;DHT22;51097;51.984;5.650;2023-05-29T15:09:42;32.10;51.70
44823;DHT22;51097;51.984;5.650;2023-05-29T15:12:08;32.10;51.60
44823;DHT22;51097;51.984;5.650;2023-05-29T15:14:34;32.10;52.50
44823;DHT22;51097;51.984;5.650;2023-05-29T15:17:00;32.20;52.50
44823;DHT22;51097;51.984;5.650;2023-05-29T15:19:26;32.40;52.00
44823;DHT22;51097;51.984;5.650;2023-05-29T15:21:51;32.40;52.20
44823;DHT22;51097;51.984;5.650;2023-05-29T15:24:17;32.50;52.10
44823;DHT22;51097;51.984;5.650;2023-05-29T15:26:43;32.50;52.30
44823;DHT22;51097;51.984;5.650;2023-05-29T15:29:08;32.50;50.80
44823;DHT22;51097;51.984;5.650;2023-05-29T15:31:34;32.40;50.20
44823;DHT22;51097;51.984;5.650;2023-05-29T15:34:02;32.50;50.60
44823;DHT22;51097;51.984;5.650;2023-05-29T15:36:28;32.40;52.90
44823;DHT22;51097;51.984;5.650;2023-05-29T15:38:54;32.50;51.30